createdAt,value
2023-04-15T00:00:49.874Z,12.70
2023-04-15T00:03:18.063Z,12.40
2023-04-15T00:05:48.207Z,12.20
2023-04-15T00:08:15.660Z,12.00
2023-04-15T00:11:02.936Z,12.00
2023-04-15T00:13:30.658Z,11.90
2023-04-15T00:15:58.958Z,12.00
2023-04-15T00:18:27.312Z,12.00
2023-04-15T00:20:54.566Z,12.00
2023-04-15T00:23:21.669Z,12.00
2023-04-15T00:25:48.662Z,12.00
2023-04-15T00:28:15.694Z,12.00
2023-04-15T00:30:42.856Z,12.00
2023-04-15T00:33:10.835Z,11.90
2023-04-15T00:35:38.030Z,11.90
2023-04-15T00:38:06.134Z,11.90
2023-04-15T00:40:33.565Z,11.80
2023-04-15T00:43:00.723Z,11.80
2023-04-15T00:45:28.461Z,11.80
2023-04-15T00:47:56.152Z,11.80
2023-04-15T00:50:24.431Z,11.80
2023-04-15T00:52:52.102Z,11.60
2023-04-15T00:55:19.557Z,11.40
2023-04-15T00:57:46.866Z,11.30
2023-04-15T01:00:14.261Z,11.20
2023-04-15T01:02:41.644Z,11.20
2023-04-15T01:05:09.916Z,11.20
2023-04-15T01:07:38.180Z,11.20
2023-04-15T01:10:05.716Z,11.30
2023-04-15T01:12:33.441Z,11.30
2023-04-15T01:15:00.954Z,11.30
2023-04-15T01:17:28.628Z,11.30
2023-04-15T01:19:58.124Z,11.30
2023-04-15T01:22:26.917Z,11.30
2023-04-15T01:25:08.679Z,11.10
2023-04-15T01:27:36.521Z,11.00
2023-04-15T01:30:05.626Z,11.00
2023-04-15T01:32:32.701Z,11.00
2023-04-15T01:34:59.862Z,11.00
2023-04-15T01:37:27.754Z,10.90
2023-04-15T01:39:54.889Z,10.90
2023-04-15T01:42:22.721Z,10.90
2023-04-15T01:44:49.944Z,11.00
2023-04-15T01:47:17.262Z,11.00
2023-04-15T01:49:44.421Z,11.00
2023-04-15T01:52:11.557Z,11.00
2023-04-15T01:54:38.970Z,11.00
2023-04-15T01:57:06.565Z,11.00
2023-04-15T01:59:33.697Z,11.00
2023-04-15T02:02:01.578Z,11.00
2023-04-15T02:04:29.157Z,11.00
2023-04-15T02:06:57.214Z,10.90
2023-04-15T02:09:24.298Z,10.80
2023-04-15T02:11:53.187Z,10.70
2023-04-15T02:14:20.387Z,10.60
2023-04-15T02:16:47.420Z,10.60
2023-04-15T02:19:15.585Z,10.50
2023-04-15T02:21:42.665Z,10.30
2023-04-15T02:24:09.717Z,10.30
2023-04-15T02:26:37.042Z,10.40
2023-04-15T02:29:04.285Z,10.50
2023-04-15T02:31:34.277Z,10.60
2023-04-15T02:34:04.524Z,10.60
2023-04-15T02:36:32.119Z,10.70
2023-04-15T02:38:59.615Z,10.70
2023-04-15T02:41:28.671Z,10.70
2023-04-15T02:43:56.004Z,10.60
2023-04-15T02:46:23.356Z,10.60
2023-04-15T02:48:50.786Z,10.60
2023-04-15T02:51:23.977Z,10.50
2023-04-15T02:53:51.183Z,10.50
2023-04-15T02:56:19.615Z,10.40
2023-04-15T02:58:46.860Z,10.30
2023-04-15T03:01:14.136Z,10.00
2023-04-15T03:03:41.630Z,9.90
2023-04-15T03:06:09.256Z,9.80
2023-04-15T03:08:36.792Z,9.80
2023-04-15T03:11:04.275Z,9.60
2023-04-15T03:13:31.479Z,9.70
2023-04-15T03:15:58.707Z,9.70
2023-04-15T03:18:26.055Z,9.70
2023-04-15T03:20:53.271Z,9.70
2023-04-15T03:23:20.265Z,9.60
2023-04-15T03:25:47.401Z,9.50
2023-04-15T03:28:14.570Z,9.50
2023-04-15T03:30:41.984Z,9.60
2023-04-15T03:33:09.274Z,9.60
2023-04-15T03:35:36.445Z,9.60
2023-04-15T03:38:03.445Z,9.60
2023-04-15T03:40:30.672Z,9.60
2023-04-15T03:42:57.726Z,9.70
2023-04-15T03:45:24.892Z,9.80
2023-04-15T03:47:52.025Z,9.80
2023-04-15T03:50:19.192Z,9.90
2023-04-15T03:52:46.749Z,9.90
2023-04-15T03:55:14.671Z,9.90
2023-04-15T03:57:42.080Z,9.90
2023-04-15T04:00:10.718Z,9.80
2023-04-15T04:02:40.964Z,9.70
2023-04-15T04:05:09.822Z,9.60
2023-04-15T04:07:36.984Z,9.60
2023-04-15T04:10:04.479Z,9.50
2023-04-15T04:12:31.829Z,9.40
2023-04-15T04:14:58.914Z,9.40
2023-04-15T04:17:25.987Z,9.40
2023-04-15T04:19:54.123Z,9.30
2023-04-15T04:22:26.649Z,9.40
2023-04-15T04:24:53.785Z,9.50
2023-04-15T04:27:21.037Z,9.50
2023-04-15T04:29:50.072Z,9.50
2023-04-15T04:32:17.230Z,9.50
2023-04-15T04:34:44.503Z,9.40
2023-04-15T04:37:12.203Z,9.40
2023-04-15T04:39:42.388Z,9.30
2023-04-15T04:42:09.532Z,9.40
2023-04-15T04:44:36.689Z,9.60
2023-04-15T04:47:03.760Z,9.70
2023-04-15T04:49:31.295Z,9.80
2023-04-15T04:51:58.587Z,9.90
2023-04-15T04:54:26.655Z,9.90
2023-04-15T04:56:53.866Z,9.90
2023-04-15T04:59:20.967Z,9.90
2023-04-15T05:01:48.310Z,9.90
2023-04-15T05:04:15.924Z,9.90
2023-04-15T05:06:43.148Z,10.00
2023-04-15T05:09:10.331Z,10.10
2023-04-15T05:11:37.828Z,10.00
2023-04-15T05:14:06.214Z,10.00
2023-04-15T05:16:33.226Z,10.00
2023-04-15T05:19:00.619Z,10.10
2023-04-15T05:21:27.952Z,10.20
2023-04-15T05:23:55.102Z,10.20
2023-04-15T05:26:22.702Z,10.40
2023-04-15T05:28:51.090Z,10.50
2023-04-15T05:31:18.405Z,10.70
2023-04-15T05:33:47.259Z,10.90
2023-04-15T05:36:14.486Z,11.10
2023-04-15T05:38:42.314Z,11.20
2023-04-15T05:41:09.789Z,11.30
2023-04-15T05:43:37.416Z,11.40
2023-04-15T05:46:04.715Z,11.50
2023-04-15T05:48:32.076Z,11.50
2023-04-15T05:50:59.555Z,11.50
2023-04-15T05:53:26.889Z,11.50
2023-04-15T05:55:54.001Z,11.50
2023-04-15T05:58:21.271Z,11.50
2023-04-15T06:00:48.928Z,11.50
2023-04-15T06:03:17.043Z,11.60
2023-04-15T06:05:45.712Z,11.70
2023-04-15T06:08:13.472Z,11.90
2023-04-15T06:10:43.731Z,12.10
2023-04-15T06:13:11.520Z,12.20
2023-04-15T06:15:38.793Z,12.20
2023-04-15T06:18:07.116Z,12.50
2023-04-15T06:20:34.680Z,12.60
2023-04-15T06:23:01.937Z,12.80
2023-04-15T06:25:32.437Z,13.00
2023-04-15T06:28:00.951Z,13.20
2023-04-15T06:30:30.542Z,13.40
2023-04-15T06:32:58.263Z,13.70
2023-04-15T06:35:29.342Z,14.00
2023-04-15T06:37:58.592Z,14.10
2023-04-15T06:40:26.397Z,14.10
2023-04-15T06:42:53.671Z,14.10
2023-04-15T06:45:20.776Z,14.20
2023-04-15T06:47:51.788Z,14.30
2023-04-15T06:50:22.744Z,14.40
2023-04-15T06:52:50.476Z,14.70
2023-04-15T06:55:18.108Z,15.00
2023-04-15T07:00:29.386Z,15.50
2023-04-15T07:03:00.821Z,15.70
2023-04-15T07:05:29.926Z,15.90
2023-04-15T07:07:58.219Z,16.10
2023-04-15T07:10:26.253Z,16.30
2023-04-15T07:12:57.565Z,16.40
2023-04-15T07:15:25.429Z,16.70
2023-04-15T07:17:55.644Z,16.90
2023-04-15T07:20:24.308Z,17.00
2023-04-15T07:33:50.068Z,17.30
2023-04-15T07:36:20.332Z,17.40
2023-04-15T07:38:48.479Z,17.30
2023-04-15T07:41:16.421Z,17.30
2023-04-15T07:43:43.853Z,17.30
2023-04-15T07:46:11.348Z,17.40
2023-04-15T07:48:38.561Z,17.40
2023-04-15T07:51:06.268Z,17.30
2023-04-15T07:53:33.833Z,17.30
2023-04-15T07:56:00.894Z,17.30
2023-04-15T07:58:28.257Z,17.50
2023-04-15T08:00:55.422Z,17.70
2023-04-15T08:03:23.917Z,18.00
2023-04-15T08:05:51.465Z,18.20
2023-04-15T08:08:20.404Z,18.40
2023-04-15T08:19:10.826Z,18.50
2023-04-15T08:21:42.946Z,18.70
2023-04-15T08:24:21.847Z,18.80
2023-04-15T09:03:24.120Z,20.70
2023-04-15T09:11:27.389Z,21.20
2023-04-15T09:13:58.375Z,21.40
2023-04-15T09:19:34.227Z,21.90
2023-04-15T09:22:05.643Z,22.30
2023-04-15T09:24:40.551Z,22.50
2023-04-15T09:27:11.360Z,22.30
2023-04-15T09:29:39.587Z,22.50
2023-04-15T09:34:58.657Z,22.90
2023-04-15T09:37:44.076Z,23.00
2023-04-15T09:48:22.433Z,22.80
2023-04-15T09:53:39.677Z,22.40
2023-04-15T09:56:27.359Z,22.10
2023-04-15T09:59:03.084Z,21.90
2023-04-15T10:15:24.048Z,23.20
2023-04-15T10:17:57.271Z,23.50
2023-04-15T10:25:59.545Z,23.90
2023-04-15T10:28:28.224Z,24.10
2023-04-15T10:30:55.921Z,24.30
2023-04-15T10:33:26.031Z,24.40
2023-04-15T10:35:56.981Z,24.80
2023-04-15T10:38:45.828Z,25.00
2023-04-15T10:41:33.999Z,24.70
2023-04-15T10:46:46.204Z,24.40
2023-04-15T10:49:43.031Z,24.30
2023-04-15T10:52:12.341Z,24.10
2023-04-15T10:54:51.806Z,24.10
2023-04-15T11:00:10.210Z,23.70
2023-04-15T11:05:40.478Z,22.40
2023-04-15T11:08:18.605Z,21.90
2023-04-15T11:10:46.492Z,21.80
2023-04-15T11:13:23.167Z,21.80
2023-04-15T11:15:53.028Z,22.10
2023-04-15T11:18:40.524Z,22.30
2023-04-15T11:33:10.517Z,23.40
2023-04-15T11:35:39.336Z,23.40
2023-04-15T11:38:10.637Z,23.30
2023-04-15T11:40:41.154Z,23.10
2023-04-15T11:43:22.492Z,22.90
2023-04-15T11:45:58.821Z,23.00
2023-04-15T11:51:35.201Z,22.80
2023-04-15T11:54:02.995Z,22.60
2023-04-15T12:05:07.517Z,22.30
2023-04-15T12:10:27.500Z,21.90
2023-04-15T12:12:57.324Z,21.80
2023-04-15T12:21:23.195Z,21.20
2023-04-15T12:23:59.829Z,21.00
2023-04-15T12:26:29.876Z,20.80
2023-04-15T12:29:12.005Z,20.70
2023-04-15T12:31:49.793Z,20.60
2023-04-15T12:34:20.257Z,20.60
2023-04-15T12:36:49.440Z,20.60
2023-04-15T12:39:25.652Z,20.60
2023-04-15T12:58:30.480Z,21.90
2023-04-15T13:00:57.873Z,21.90
2023-04-15T13:03:40.840Z,22.20
2023-04-15T13:06:10.794Z,22.40
2023-04-15T13:14:48.489Z,22.90
2023-04-15T13:20:41.401Z,23.20
2023-04-15T13:50:26.856Z,22.20
2023-04-15T13:53:01.007Z,21.80
2023-04-15T13:55:31.829Z,21.50
2023-04-15T13:58:01.348Z,21.40
2023-04-15T14:00:31.330Z,21.50
2023-04-15T14:02:59.162Z,21.80
2023-04-15T14:05:35.687Z,22.10
2023-04-15T14:08:05.081Z,22.10
2023-04-15T14:10:35.692Z,22.20
2023-04-15T14:13:13.629Z,22.30
2023-04-15T14:15:47.747Z,22.30
2023-04-15T14:18:37.623Z,22.40
2023-04-15T14:21:42.756Z,22.40
2023-04-15T14:24:27.575Z,22.50
2023-04-15T14:27:01.533Z,22.60
2023-04-15T14:29:41.353Z,22.60
2023-04-15T14:32:12.653Z,22.40
2023-04-15T14:34:45.788Z,22.30
2023-04-15T14:37:15.460Z,22.30
2023-04-15T14:39:42.616Z,22.30
2023-04-15T14:42:12.192Z,22.30
2023-04-15T14:44:39.518Z,22.30
2023-04-15T14:47:06.785Z,22.30
2023-04-15T14:49:34.191Z,22.00
2023-04-15T14:52:06.171Z,21.90
2023-04-15T14:54:33.704Z,21.80
2023-04-15T14:57:02.323Z,21.80
2023-04-15T14:59:29.913Z,21.60
2023-04-15T15:01:58.767Z,21.60
2023-04-15T15:04:34.030Z,21.40
2023-04-15T15:07:02.568Z,21.40
2023-04-15T15:09:36.320Z,21.30
2023-04-15T15:12:05.470Z,21.10
2023-04-15T15:14:35.554Z,20.90
2023-04-15T15:17:23.916Z,20.90
2023-04-15T15:19:51.458Z,20.90
2023-04-15T15:23:08.086Z,20.90
2023-04-15T15:29:18.546Z,20.90
2023-04-15T15:37:49.959Z,20.40
2023-04-15T15:40:17.283Z,20.10
2023-04-15T15:56:45.064Z,19.20
2023-04-15T15:59:13.071Z,19.10
2023-04-15T16:01:52.208Z,19.10
2023-04-15T16:04:22.135Z,19.10
2023-04-15T16:06:49.851Z,19.20
2023-04-15T16:12:14.698Z,19.30
2023-04-15T16:14:55.331Z,19.50
2023-04-15T16:17:27.025Z,19.60
2023-04-15T16:19:57.682Z,19.50
2023-04-15T16:22:41.567Z,19.40
2023-04-15T16:25:19.174Z,19.50
2023-04-15T16:27:58.827Z,19.50
2023-04-15T16:33:14.001Z,19.60
2023-04-15T16:35:47.292Z,19.50
2023-04-15T16:38:18.421Z,19.40
2023-04-15T16:46:12.115Z,19.40
2023-04-15T16:48:41.225Z,19.30
2023-04-15T16:51:08.874Z,19.40
2023-04-15T16:56:22.932Z,19.40
2023-04-15T16:58:54.773Z,19.40
2023-04-15T17:01:24.097Z,19.40
2023-04-15T17:03:54.688Z,19.50
2023-04-15T17:45:39.934Z,18.80
2023-04-15T17:48:07.335Z,18.80
2023-04-15T17:50:39.320Z,18.80
2023-04-15T17:53:11.451Z,18.80
2023-04-15T17:55:45.644Z,18.70
2023-04-15T17:58:15.322Z,18.60
2023-04-15T18:00:47.136Z,18.50
2023-04-15T18:03:15.236Z,18.40
2023-04-15T18:05:45.516Z,18.40
2023-04-15T18:08:20.640Z,18.40
2023-04-15T18:10:48.287Z,18.40
2023-04-15T18:13:23.046Z,18.30
2023-04-15T18:15:51.516Z,18.30
2023-04-15T18:18:19.790Z,18.30
2023-04-15T18:20:50.287Z,18.20
2023-04-15T18:23:17.935Z,18.10
2023-04-15T18:25:45.491Z,18.10
2023-04-15T18:28:12.698Z,18.10
2023-04-15T18:30:40.436Z,18.10
2023-04-15T18:33:09.939Z,18.20
2023-04-15T18:35:37.683Z,18.20
2023-04-15T18:38:14.546Z,18.10
2023-04-15T18:40:42.018Z,18.10
2023-04-15T18:43:11.917Z,18.10
2023-04-15T18:45:45.288Z,18.10
2023-04-15T18:48:16.096Z,18.10
2023-04-15T18:50:48.297Z,18.00
2023-04-15T18:53:25.778Z,18.00
2023-04-15T18:59:10.024Z,17.90
2023-04-15T19:04:21.026Z,17.70
2023-04-15T19:06:48.672Z,17.70
2023-04-15T19:09:17.617Z,17.70
2023-04-15T19:11:45.729Z,17.70
2023-04-15T19:14:14.863Z,17.70
2023-04-15T19:16:42.903Z,17.60
2023-04-15T19:19:16.399Z,17.50
2023-04-15T19:21:43.739Z,17.60
2023-04-15T19:24:13.588Z,17.60
2023-04-15T19:26:41.857Z,17.60
2023-04-15T19:29:11.559Z,17.70
2023-04-15T19:31:46.818Z,17.50
2023-04-15T19:34:25.897Z,17.50
2023-04-15T19:39:50.218Z,17.40
2023-04-15T19:42:23.383Z,17.40
2023-04-15T19:44:53.163Z,17.40
2023-04-15T19:47:20.618Z,17.40
2023-04-15T19:49:47.780Z,17.40
2023-04-15T19:52:15.489Z,17.30
2023-04-15T19:54:46.396Z,17.30
2023-04-15T19:57:24.521Z,17.30
2023-04-15T19:59:54.557Z,17.30
2023-04-15T20:02:27.172Z,17.30
2023-04-15T20:08:01.804Z,17.00
2023-04-15T20:10:32.774Z,17.10
2023-04-15T20:13:08.468Z,17.10
2023-04-15T20:15:40.304Z,16.90
2023-04-15T20:18:08.886Z,16.70
2023-04-15T20:20:36.593Z,16.70
2023-04-15T20:23:03.726Z,16.70
2023-04-15T20:25:31.213Z,16.80
2023-04-15T20:28:00.994Z,16.80
2023-04-15T20:30:29.564Z,16.80
2023-04-15T20:33:04.774Z,16.80
2023-04-15T20:35:34.231Z,16.90
2023-04-15T20:38:05.762Z,16.90
2023-04-15T20:40:46.933Z,16.90
2023-04-15T20:43:17.091Z,16.90
2023-04-15T20:45:51.667Z,16.70
2023-04-15T20:48:47.252Z,16.70
2023-04-15T20:51:15.427Z,16.60
2023-04-15T20:53:43.834Z,16.70
2023-04-15T20:56:11.559Z,16.70
2023-04-15T20:58:40.154Z,16.80
2023-04-15T21:01:14.332Z,16.80
2023-04-15T21:03:42.834Z,16.80
2023-04-15T21:06:31.746Z,16.90
2023-04-15T21:09:09.384Z,16.80
2023-04-15T21:14:19.259Z,16.70
2023-04-15T21:16:47.157Z,16.70
2023-04-15T21:19:15.333Z,16.70
2023-04-15T21:24:31.616Z,16.60
2023-04-15T21:26:59.705Z,16.60
2023-04-15T21:32:18.294Z,16.20
2023-04-15T21:34:50.398Z,16.30
2023-04-15T21:37:22.409Z,16.30
2023-04-15T21:39:50.422Z,16.30
2023-04-15T21:42:17.987Z,16.30
2023-04-15T21:44:47.401Z,16.40
2023-04-15T21:47:17.813Z,16.40
2023-04-15T21:49:46.653Z,16.40
2023-04-15T21:52:14.861Z,16.50
2023-04-15T21:54:46.512Z,16.40
2023-04-15T21:57:15.883Z,16.40
2023-04-15T21:59:43.670Z,16.40
2023-04-15T22:02:11.262Z,16.30
2023-04-15T22:04:38.835Z,16.30
2023-04-15T22:07:06.442Z,16.30
2023-04-15T22:09:41.359Z,16.30
2023-04-15T22:12:08.740Z,16.20
2023-04-15T22:14:37.681Z,16.10
2023-04-15T22:17:07.038Z,16.10
2023-04-15T22:19:34.874Z,16.10
2023-04-15T22:22:05.950Z,16.10
2023-04-15T22:24:42.727Z,16.10
2023-04-15T22:27:12.717Z,16.00
2023-04-15T22:29:40.741Z,16.00
2023-04-15T22:32:09.077Z,15.70
2023-04-15T22:34:40.091Z,15.60
2023-04-15T22:37:12.276Z,15.60
2023-04-15T22:39:39.738Z,15.70
2023-04-15T22:42:08.202Z,15.70
2023-04-15T22:44:36.006Z,15.70
2023-04-15T22:47:03.515Z,15.80
2023-04-15T22:49:31.331Z,15.80
2023-04-15T22:52:12.296Z,15.80
2023-04-15T23:00:20.796Z,15.90
2023-04-15T23:02:56.891Z,15.90
2023-04-15T23:05:27.671Z,15.80
2023-04-15T23:10:38.722Z,15.60
2023-04-15T23:13:07.213Z,15.50
2023-04-15T23:15:34.845Z,15.40
2023-04-15T23:18:12.171Z,15.30
2023-04-15T23:20:40.676Z,15.20
2023-04-15T23:23:09.598Z,15.20
2023-04-15T23:25:37.446Z,15.20
2023-04-15T23:28:06.995Z,15.10
2023-04-15T23:30:34.698Z,15.10
2023-04-15T23:33:02.248Z,15.10
2023-04-15T23:35:30.032Z,15.00
2023-04-15T23:38:00.472Z,15.00
2023-04-15T23:40:27.974Z,15.00
2023-04-15T23:42:55.122Z,15.00
2023-04-15T23:45:23.048Z,14.90
2023-04-15T23:47:51.112Z,14.90
2023-04-15T23:50:20.436Z,14.90
2023-04-15T23:52:47.916Z,14.90
2023-04-15T23:55:15.702Z,14.80
2023-04-15T23:57:43.827Z,14.70
